sensor_id;sensor_type;location;lat;lon;timestamp;pressure;altitude;pressure_sealevel;temperature;humidity
65376;BME280;51976;47.332;9.404;2022-12-18T00:00:58;93458.88;;;18.71;32.62
65376;BME280;51976;47.332;9.404;2022-12-18T00:03:24;93451.81;;;18.70;32.60
65376;BME280;51976;47.332;9.404;2022-12-18T00:05:51;93458.88;;;18.71;32.56
65376;BME280;51976;47.332;9.404;2022-12-18T00:08:17;93449.38;;;18.68;32.48
65376;BME280;51976;47.332;9.404;2022-12-18T00:10:43;93468.69;;;18.72;32.62
65376;BME280;51976;47.332;9.404;2022-12-18T00:13:09;93469.78;;;18.71;32.21
65376;BME280;51976;47.332;9.404;2022-12-18T00:15:36;93483.44;;;18.71;32.36
65376;BME280;51976;47.332;9.404;2022-12-18T00:18:01;93487.31;;;18.70;32.25
65376;BME280;51976;47.332;9.404;2022-12-18T00:20:27;93491.16;;;18.69;32.49
65376;BME280;51976;47.332;9.404;2022-12-18T00:22:53;93497.41;;;18.69;32.47
65376;BME280;51976;47.332;9.404;2022-12-18T00:25:19;93499.66;;;18.67;32.45
65376;BME280;51976;47.332;9.404;2022-12-18T00:27:44;93499.03;;;18.70;32.33
65376;BME280;51976;47.332;9.404;2022-12-18T00:30:10;93500.97;;;18.70;32.36
65376;BME280;51976;47.332;9.404;2022-12-18T00:32:35;93502.56;;;18.71;32.18
65376;BME280;51976;47.332;9.404;2022-12-18T00:35:01;93503.69;;;18.70;32.50
65376;BME280;51976;47.332;9.404;2022-12-18T00:37:26;93502.06;;;18.69;32.43
65376;BME280;51976;47.332;9.404;2022-12-18T00:39:52;93505.13;;;18.67;32.37
65376;BME280;51976;47.332;9.404;2022-12-18T00:42:17;93503.69;;;18.70;32.59
65376;BME280;51976;47.332;9.404;2022-12-18T00:45:03;93504.97;;;18.72;32.54
65376;BME280;51976;47.332;9.404;2022-12-18T00:47:28;93510.75;;;18.71;32.25
65376;BME280;51976;47.332;9.404;2022-12-18T00:49:53;93508.66;;;18.68;32.19
65376;BME280;51976;47.332;9.404;2022-12-18T00:52:19;93508.34;;;18.69;32.37
65376;BME280;51976;47.332;9.404;2022-12-18T00:54:44;93508.34;;;18.69;32.21
65376;BME280;51976;47.332;9.404;2022-12-18T00:57:10;93516.53;;;18.69;32.52
65376;BME280;51976;47.332;9.404;2022-12-18T00:59:35;93513.81;;;18.69;32.14
65376;BME280;51976;47.332;9.404;2022-12-18T01:02:00;93515.41;;;18.70;32.23
65376;BME280;51976;47.332;9.404;2022-12-18T01:04:26;93515.72;;;18.69;32.10
65376;BME280;51976;47.332;9.404;2022-12-18T01:06:51;93520.06;;;18.70;32.25
65376;BME280;51976;47.332;9.404;2022-12-18T01:09:16;93511.88;;;18.70;32.18
65376;BME280;51976;47.332;9.404;2022-12-18T01:11:42;93509.16;;;18.70;32.44
65376;BME280;51976;47.332;9.404;2022-12-18T01:14:07;93510.28;;;18.69;32.39
65376;BME280;51976;47.332;9.404;2022-12-18T01:16:33;93502.88;;;18.69;32.33
65376;BME280;51976;47.332;9.404;2022-12-18T01:18:58;93507.53;;;18.69;32.30
65376;BME280;51976;47.332;9.404;2022-12-18T01:21:24;93505.13;;;18.67;32.38
65376;BME280;51976;47.332;9.404;2022-12-18T01:23:54;93503.19;;;18.68;32.24
65376;BME280;51976;47.332;9.404;2022-12-18T01:26:19;93514.63;;;18.70;32.29
65376;BME280;51976;47.332;9.404;2022-12-18T01:28:45;93514.63;;;18.70;32.35
65376;BME280;51976;47.332;9.404;2022-12-18T01:31:16;93525.03;;;18.68;32.27
65376;BME280;51976;47.332;9.404;2022-12-18T01:33:43;93532.59;;;18.71;32.19
65376;BME280;51976;47.332;9.404;2022-12-18T01:36:14;93534.84;;;18.69;32.31
65376;BME280;51976;47.332;9.404;2022-12-18T01:38:40;93539.50;;;18.68;32.21
65376;BME280;51976;47.332;9.404;2022-12-18T01:41:05;93539.19;;;18.70;32.32
65376;BME280;51976;47.332;9.404;2022-12-18T01:43:49;93541.44;;;18.68;32.08
65376;BME280;51976;47.332;9.404;2022-12-18T01:46:16;93533.25;;;18.68;32.30
65376;BME280;51976;47.332;9.404;2022-12-18T01:48:42;93537.25;;;18.70;32.43
65376;BME280;51976;47.332;9.404;2022-12-18T01:51:11;93540.31;;;18.69;32.14
65376;BME280;51976;47.332;9.404;2022-12-18T01:53:39;93547.38;;;18.70;32.32
65376;BME280;51976;47.332;9.404;2022-12-18T01:56:06;93551.25;;;18.69;32.18
65376;BME280;51976;47.332;9.404;2022-12-18T01:58:55;93544.34;;;18.71;32.08
65376;BME280;51976;47.332;9.404;2022-12-18T02:01:24;93553.66;;;18.70;32.07
65376;BME280;51976;47.332;9.404;2022-12-18T02:03:50;93560.22;;;18.69;32.14
65376;BME280;51976;47.332;9.404;2022-12-18T02:06:34;93562.16;;;18.69;31.96
65376;BME280;51976;47.332;9.404;2022-12-18T02:09:15;93553.66;;;18.70;32.30
65376;BME280;51976;47.332;9.404;2022-12-18T02:11:52;93548.50;;;18.69;32.09
65376;BME280;51976;47.332;9.404;2022-12-18T02:14:32;93546.56;;;18.69;32.08
65376;BME280;51976;47.332;9.404;2022-12-18T02:17:16;93539.19;;;18.70;32.20
65376;BME280;51976;47.332;9.404;2022-12-18T02:20:16;93537.59;;;18.69;32.06
65376;BME280;51976;47.332;9.404;2022-12-18T02:23:01;93538.06;;;18.71;32.00
65376;BME280;51976;47.332;9.404;2022-12-18T02:25:41;93538.69;;;18.68;32.12
65376;BME280;51976;47.332;9.404;2022-12-18T02:28:13;93533.72;;;18.70;32.26
65376;BME280;51976;47.332;9.404;2022-12-18T02:30:42;93541.59;;;18.71;32.04
65376;BME280;51976;47.332;9.404;2022-12-18T02:33:09;93538.06;;;18.71;31.96
65376;BME280;51976;47.332;9.404;2022-12-18T02:35:37;93546.25;;;18.71;32.37
65376;BME280;51976;47.332;9.404;2022-12-18T02:38:05;93539.69;;;18.72;31.95
65376;BME280;51976;47.332;9.404;2022-12-18T02:40:31;93534.53;;;18.70;32.13
65376;BME280;51976;47.332;9.404;2022-12-18T02:43:07;93535.66;;;18.69;32.39
65376;BME280;51976;47.332;9.404;2022-12-18T02:45:32;93537.25;;;18.70;32.17
65376;BME280;51976;47.332;9.404;2022-12-18T02:47:58;93543.53;;;18.71;32.23
65376;BME280;51976;47.332;9.404;2022-12-18T02:50:34;93543.53;;;18.71;32.22
65376;BME280;51976;47.332;9.404;2022-12-18T02:53:36;93548.19;;;18.70;32.02
65376;BME280;51976;47.332;9.404;2022-12-18T02:56:15;93547.69;;;18.68;32.29
65376;BME280;51976;47.332;9.404;2022-12-18T02:59:04;93544.66;;;18.70;32.11
65376;BME280;51976;47.332;9.404;2022-12-18T03:01:41;93544.34;;;18.71;32.27
65376;BME280;51976;47.332;9.404;2022-12-18T03:07:01;93548.19;;;18.70;32.00
65376;BME280;51976;47.332;9.404;2022-12-18T03:09:32;93538.88;;;18.71;31.98
65376;BME280;51976;47.332;9.404;2022-12-18T03:12:14;93554.16;;;18.72;32.23
65376;BME280;51976;47.332;9.404;2022-12-18T03:15:04;93550.13;;;18.70;31.77
65376;BME280;51976;47.332;9.404;2022-12-18T03:17:34;93560.41;;;18.73;32.13
65376;BME280;51976;47.332;9.404;2022-12-18T03:20:12;93562.66;;;18.71;31.79
65376;BME280;51976;47.332;9.404;2022-12-18T03:22:38;93555.56;;;18.70;32.12
65376;BME280;51976;47.332;9.404;2022-12-18T03:25:09;93560.72;;;18.71;31.78
65376;BME280;51976;47.332;9.404;2022-12-18T03:27:37;93559.91;;;18.71;31.92
65376;BME280;51976;47.332;9.404;2022-12-18T03:30:07;93552.53;;;18.71;31.87
65376;BME280;51976;47.332;9.404;2022-12-18T03:33:01;93549.00;;;18.71;32.02
65376;BME280;51976;47.332;9.404;2022-12-18T03:35:32;93554.28;;;18.67;31.94
65376;BME280;51976;47.332;9.404;2022-12-18T03:37:59;93545.78;;;18.69;32.09
65376;BME280;51976;47.332;9.404;2022-12-18T03:40:31;93546.56;;;18.69;32.06
65376;BME280;51976;47.332;9.404;2022-12-18T03:43:09;93548.19;;;18.70;31.98
65376;BME280;51976;47.332;9.404;2022-12-18T03:45:38;93554.78;;;18.69;31.88
65376;BME280;51976;47.332;9.404;2022-12-18T03:48:17;93556.88;;;18.72;31.90
65376;BME280;51976;47.332;9.404;2022-12-18T03:50:53;93555.56;;;18.70;31.76
65376;BME280;51976;47.332;9.404;2022-12-18T03:53:46;93559.91;;;18.71;31.84
65376;BME280;51976;47.332;9.404;2022-12-18T03:56:16;93565.38;;;18.71;31.92
65376;BME280;51976;47.332;9.404;2022-12-18T03:58:43;93570.84;;;18.71;32.00
65376;BME280;51976;47.332;9.404;2022-12-18T04:01:12;93570.03;;;18.70;31.75
65376;BME280;51976;47.332;9.404;2022-12-18T04:03:41;93581.78;;;18.71;31.80
65376;BME280;51976;47.332;9.404;2022-12-18T04:06:08;93578.22;;;18.70;31.82
65376;BME280;51976;47.332;9.404;2022-12-18T04:08:35;93583.38;;;18.72;32.07
65376;BME280;51976;47.332;9.404;2022-12-18T04:11:01;93584.00;;;18.69;31.70
65376;BME280;51976;47.332;9.404;2022-12-18T04:13:29;93594.94;;;18.69;31.77
65376;BME280;51976;47.332;9.404;2022-12-18T04:15:56;93591.88;;;18.70;32.02
65376;BME280;51976;47.332;9.404;2022-12-18T04:18:22;93591.56;;;18.72;31.85
65376;BME280;51976;47.332;9.404;2022-12-18T04:20:47;93594.81;;;18.74;31.60
65376;BME280;51976;47.332;9.404;2022-12-18T04:23:12;93595.13;;;18.72;31.73
65376;BME280;51976;47.332;9.404;2022-12-18T04:25:38;93599.78;;;18.72;31.94
65376;BME280;51976;47.332;9.404;2022-12-18T04:28:03;93604.44;;;18.71;31.80
65376;BME280;51976;47.332;9.404;2022-12-18T04:30:29;93601.38;;;18.73;31.74
65376;BME280;51976;47.332;9.404;2022-12-18T04:32:54;93598.16;;;18.71;31.90
65376;BME280;51976;47.332;9.404;2022-12-18T04:35:19;93595.13;;;18.72;31.78
65376;BME280;51976;47.332;9.404;2022-12-18T04:37:45;93602.50;;;18.72;31.65
65376;BME280;51976;47.332;9.404;2022-12-18T04:40:11;93600.56;;;18.72;31.71
65376;BME280;51976;47.332;9.404;2022-12-18T04:42:36;93610.69;;;18.72;31.84
65376;BME280;51976;47.332;9.404;2022-12-18T04:45:02;93609.88;;;18.71;31.69
65376;BME280;51976;47.332;9.404;2022-12-18T04:47:27;93610.69;;;18.72;31.93
65376;BME280;51976;47.332;9.404;2022-12-18T04:49:52;93609.25;;;18.74;31.71
65376;BME280;51976;47.332;9.404;2022-12-18T04:52:18;93621.31;;;18.73;31.80
65376;BME280;51976;47.332;9.404;2022-12-18T04:54:43;93612.31;;;18.73;31.75
65376;BME280;51976;47.332;9.404;2022-12-18T04:57:09;93621.31;;;18.73;31.60
65376;BME280;51976;47.332;9.404;2022-12-18T04:59:34;93618.09;;;18.71;31.96
65376;BME280;51976;47.332;9.404;2022-12-18T05:01:59;93615.03;;;18.73;31.75
65376;BME280;51976;47.332;9.404;2022-12-18T05:04:25;93612.31;;;18.73;31.79
65376;BME280;51976;47.332;9.404;2022-12-18T05:06:50;93620.81;;;18.71;31.89
65376;BME280;51976;47.332;9.404;2022-12-18T05:09:16;93617.78;;;18.73;31.65
65376;BME280;51976;47.332;9.404;2022-12-18T05:11:41;93622.44;;;18.72;31.65
65376;BME280;51976;47.332;9.404;2022-12-18T05:14:06;93632.22;;;18.73;31.44
65376;BME280;51976;47.332;9.404;2022-12-18T05:16:32;93631.44;;;18.73;31.51
65376;BME280;51976;47.332;9.404;2022-12-18T05:18:57;93634.16;;;18.73;31.51
65376;BME280;51976;47.332;9.404;2022-12-18T05:21:22;93632.53;;;18.72;31.67
65376;BME280;51976;47.332;9.404;2022-12-18T05:23:48;93628.19;;;18.71;31.79
65376;BME280;51976;47.332;9.404;2022-12-18T05:26:18;93632.53;;;18.72;31.62
65376;BME280;51976;47.332;9.404;2022-12-18T05:28:45;93627.09;;;18.72;31.52
65376;BME280;51976;47.332;9.404;2022-12-18T05:31:11;93624.34;;;18.72;31.55
65376;BME280;51976;47.332;9.404;2022-12-18T05:33:36;93627.88;;;18.72;31.58
65376;BME280;51976;47.332;9.404;2022-12-18T05:36:05;93626.28;;;18.71;31.55
65376;BME280;51976;47.332;9.404;2022-12-18T05:38:32;93628.69;;;18.73;31.51
65376;BME280;51976;47.332;9.404;2022-12-18T05:40:58;93625.97;;;18.73;31.69
65376;BME280;51976;47.332;9.404;2022-12-18T05:43:24;93629.81;;;18.72;31.65
65376;BME280;51976;47.332;9.404;2022-12-18T05:45:51;93633.34;;;18.72;31.79
65376;BME280;51976;47.332;9.404;2022-12-18T05:48:17;93635.28;;;18.72;31.69
65376;BME280;51976;47.332;9.404;2022-12-18T05:50:44;93638.81;;;18.72;31.65
65376;BME280;51976;47.332;9.404;2022-12-18T05:53:13;93647.31;;;18.71;31.75
65376;BME280;51976;47.332;9.404;2022-12-18T05:55:40;93635.28;;;18.72;31.41
65376;BME280;51976;47.332;9.404;2022-12-18T05:58:07;93644.28;;;18.72;31.41
65376;BME280;51976;47.332;9.404;2022-12-18T06:00:35;93652.16;;;18.74;31.65
65376;BME280;51976;47.332;9.404;2022-12-18T06:03:01;93639.63;;;18.73;31.56
65376;BME280;51976;47.332;9.404;2022-12-18T06:05:27;93645.88;;;18.73;31.51
65376;BME280;51976;47.332;9.404;2022-12-18T06:07:53;93659.22;;;18.75;31.58
65376;BME280;51976;47.332;9.404;2022-12-18T06:10:18;93653.16;;;18.78;31.45
65376;BME280;51976;47.332;9.404;2022-12-18T06:12:44;93650.59;;;18.81;31.47
65376;BME280;51976;47.332;9.404;2022-12-18T06:15:09;93647.75;;;18.86;31.49
65376;BME280;51976;47.332;9.404;2022-12-18T06:17:35;93643.09;;;18.96;31.14
65376;BME280;51976;47.332;9.404;2022-12-18T06:20:01;93647.94;;;18.99;31.07
65376;BME280;51976;47.332;9.404;2022-12-18T06:22:26;93651.97;;;19.01;31.13
65376;BME280;51976;47.332;9.404;2022-12-18T06:24:52;93652.78;;;19.02;31.16
65376;BME280;51976;47.332;9.404;2022-12-18T06:27:17;93656.00;;;19.04;31.05
65376;BME280;51976;47.332;9.404;2022-12-18T06:29:42;93669.03;;;19.07;31.21
65376;BME280;51976;47.332;9.404;2022-12-18T06:32:08;93657.00;;;19.08;31.26
65376;BME280;51976;47.332;9.404;2022-12-18T06:34:34;93657.81;;;19.08;31.06
65376;BME280;51976;47.332;9.404;2022-12-18T06:36:59;93661.03;;;19.10;31.11
65376;BME280;51976;47.332;9.404;2022-12-18T06:39:27;93664.75;;;19.14;31.13
65376;BME280;51976;47.332;9.404;2022-12-18T06:41:53;93666.31;;;19.15;31.15
65376;BME280;51976;47.332;9.404;2022-12-18T06:44:18;93665.88;;;19.13;31.06
65376;BME280;51976;47.332;9.404;2022-12-18T06:46:44;93666.31;;;19.15;30.95
65376;BME280;51976;47.332;9.404;2022-12-18T06:49:09;93662.47;;;19.16;31.01
65376;BME280;51976;47.332;9.404;2022-12-18T06:51:34;93662.66;;;19.20;30.82
65376;BME280;51976;47.332;9.404;2022-12-18T06:54:00;93665.06;;;19.21;31.16
65376;BME280;51976;47.332;9.404;2022-12-18T06:56:25;93665.69;;;19.18;31.01
65376;BME280;51976;47.332;9.404;2022-12-18T06:58:51;93667.81;;;19.21;31.19
65376;BME280;51976;47.332;9.404;2022-12-18T07:01:16;93674.25;;;19.25;30.84
65376;BME280;51976;47.332;9.404;2022-12-18T07:03:42;93672.47;;;19.21;31.01
65376;BME280;51976;47.332;9.404;2022-12-18T07:06:14;93677.94;;;19.21;31.04
65376;BME280;51976;47.332;9.404;2022-12-18T07:08:40;93687.13;;;19.25;30.84
65376;BME280;51976;47.332;9.404;2022-12-18T07:11:06;93691.66;;;19.30;30.65
65376;BME280;51976;47.332;9.404;2022-12-18T07:13:31;93695.50;;;19.28;30.84
65376;BME280;51976;47.332;9.404;2022-12-18T07:16:03;93706.94;;;19.31;30.55
65376;BME280;51976;47.332;9.404;2022-12-18T07:18:29;93704.19;;;19.31;30.94
65376;BME280;51976;47.332;9.404;2022-12-18T07:20:54;93712.72;;;19.29;30.96
65376;BME280;51976;47.332;9.404;2022-12-18T07:23:38;93705.81;;;19.32;30.72
65376;BME280;51976;47.332;9.404;2022-12-18T07:26:05;93715.44;;;19.29;31.09
65376;BME280;51976;47.332;9.404;2022-12-18T07:28:32;93724.75;;;19.28;30.94
65376;BME280;51976;47.332;9.404;2022-12-18T07:31:02;93732.03;;;19.33;30.87
65376;BME280;51976;47.332;9.404;2022-12-18T07:33:28;93734.75;;;19.33;30.65
65376;BME280;51976;47.332;9.404;2022-12-18T07:35:53;93733.31;;;19.35;30.85
65376;BME280;51976;47.332;9.404;2022-12-18T07:38:19;93744.56;;;19.34;30.73
65376;BME280;51976;47.332;9.404;2022-12-18T07:40:44;93746.19;;;19.35;30.70
65376;BME280;51976;47.332;9.404;2022-12-18T07:43:09;93747.81;;;19.36;30.88
65376;BME280;51976;47.332;9.404;2022-12-18T07:45:35;93752.66;;;19.39;30.78
65376;BME280;51976;47.332;9.404;2022-12-18T07:48:00;93747.19;;;19.39;30.68
65376;BME280;51976;47.332;9.404;2022-12-18T07:50:25;93753.78;;;19.38;30.94
65376;BME280;51976;47.332;9.404;2022-12-18T07:52:51;93754.25;;;19.40;30.86
65376;BME280;51976;47.332;9.404;2022-12-18T07:55:16;93755.06;;;19.40;30.79
65376;BME280;51976;47.332;9.404;2022-12-18T07:57:41;93756.34;;;19.43;30.84
65376;BME280;51976;47.332;9.404;2022-12-18T08:00:07;93768.75;;;19.40;31.00
65376;BME280;51976;47.332;9.404;2022-12-18T08:02:33;93770.34;;;19.41;30.81
65376;BME280;51976;47.332;9.404;2022-12-18T08:04:58;93765.69;;;19.42;30.84
65376;BME280;51976;47.332;9.404;2022-12-18T08:07:24;93754.25;;;19.40;30.87
65376;BME280;51976;47.332;9.404;2022-12-18T08:09:49;93759.41;;;19.41;30.68
65376;BME280;51976;47.332;9.404;2022-12-18T08:12:14;93761.19;;;19.46;30.66
65376;BME280;51976;47.332;9.404;2022-12-18T08:14:40;93751.84;;;19.47;30.56
65376;BME280;51976;47.332;9.404;2022-12-18T08:17:05;93761.19;;;19.46;30.53
65376;BME280;51976;47.332;9.404;2022-12-18T08:19:30;93759.56;;;19.45;30.51
65376;BME280;51976;47.332;9.404;2022-12-18T08:21:56;93759.25;;;19.46;30.85
65376;BME280;51976;47.332;9.404;2022-12-18T08:24:22;93753.47;;;19.48;30.54
65376;BME280;51976;47.332;9.404;2022-12-18T08:26:47;93756.53;;;19.46;30.53
65376;BME280;51976;47.332;9.404;2022-12-18T08:29:12;93766.03;;;19.49;30.25
65376;BME280;51976;47.332;9.404;2022-12-18T08:31:38;93758.94;;;19.48;30.89
65376;BME280;51976;47.332;9.404;2022-12-18T08:34:03;93763.59;;;19.47;30.93
65376;BME280;51976;47.332;9.404;2022-12-18T08:36:29;93758.63;;;19.49;30.61
65376;BME280;51976;47.332;9.404;2022-12-18T08:38:54;93756.22;;;19.48;30.67
65376;BME280;51976;47.332;9.404;2022-12-18T08:41:20;93755.59;;;19.51;30.67
65376;BME280;51976;47.332;9.404;2022-12-18T08:43:46;93755.91;;;19.49;30.77
65376;BME280;51976;47.332;9.404;2022-12-18T08:46:37;93758.84;;;19.53;30.72
65376;BME280;51976;47.332;9.404;2022-12-18T08:49:03;93754.81;;;19.50;30.54
65376;BME280;51976;47.332;9.404;2022-12-18T08:51:29;93754.81;;;19.50;30.70
65376;BME280;51976;47.332;9.404;2022-12-18T08:53:54;93747.41;;;19.51;30.71
65376;BME280;51976;47.332;9.404;2022-12-18T08:56:20;93754.50;;;19.52;30.40
65376;BME280;51976;47.332;9.404;2022-12-18T08:58:45;93756.59;;;19.55;30.65
65376;BME280;51976;47.332;9.404;2022-12-18T09:01:11;93758.53;;;19.54;30.33
65376;BME280;51976;47.332;9.404;2022-12-18T09:03:38;93753.06;;;19.54;30.47
65376;BME280;51976;47.332;9.404;2022-12-18T09:06:04;93754.50;;;19.52;30.51
65376;BME280;51976;47.332;9.404;2022-12-18T09:08:30;93757.53;;;19.50;30.63
65376;BME280;51976;47.332;9.404;2022-12-18T09:10:56;93761.75;;;19.56;30.55
65376;BME280;51976;47.332;9.404;2022-12-18T09:13:21;93763.38;;;19.57;30.70
65376;BME280;51976;47.332;9.404;2022-12-18T09:15:49;93768.84;;;19.57;30.48
65376;BME280;51976;47.332;9.404;2022-12-18T09:18:17;93760.13;;;19.55;30.46
65376;BME280;51976;47.332;9.404;2022-12-18T09:20:42;93762.06;;;19.55;30.74
65376;BME280;51976;47.332;9.404;2022-12-18T09:23:08;93748.25;;;19.60;30.53
65376;BME280;51976;47.332;9.404;2022-12-18T09:25:35;93746.16;;;19.57;30.45
65376;BME280;51976;47.332;9.404;2022-12-18T09:28:02;93745.66;;;19.55;30.62
65376;BME280;51976;47.332;9.404;2022-12-18T09:30:28;93748.41;;;19.55;30.55
65376;BME280;51976;47.332;9.404;2022-12-18T09:32:54;93743.41;;;19.57;30.55
65376;BME280;51976;47.332;9.404;2022-12-18T09:35:19;93744.53;;;19.56;30.54
65376;BME280;51976;47.332;9.404;2022-12-18T09:37:44;93745.16;;;19.53;30.60
65376;BME280;51976;47.332;9.404;2022-12-18T09:40:15;93739.06;;;19.56;30.64
65376;BME280;51976;47.332;9.404;2022-12-18T09:42:45;93739.88;;;19.56;30.71
65376;BME280;51976;47.332;9.404;2022-12-18T09:45:14;93741.50;;;19.57;30.79
65376;BME280;51976;47.332;9.404;2022-12-18T09:47:41;93739.25;;;19.59;30.58
65376;BME280;51976;47.332;9.404;2022-12-18T09:50:32;93741.34;;;19.63;30.65
65376;BME280;51976;47.332;9.404;2022-12-18T09:53:04;93735.38;;;19.60;30.61
65376;BME280;51976;47.332;9.404;2022-12-18T09:55:36;93745.03;;;19.58;30.40
65376;BME280;51976;47.332;9.404;2022-12-18T09:58:16;93743.28;;;19.62;30.53
65376;BME280;51976;47.332;9.404;2022-12-18T10:00:43;93742.47;;;19.62;30.66
65376;BME280;51976;47.332;9.404;2022-12-18T10:03:11;93741.84;;;19.65;30.72
65376;BME280;51976;47.332;9.404;2022-12-18T10:05:46;93732.84;;;19.64;30.36
65376;BME280;51976;47.332;9.404;2022-12-18T10:08:24;93730.91;;;19.65;30.49
65376;BME280;51976;47.332;9.404;2022-12-18T10:10:57;93726.41;;;19.69;30.24
65376;BME280;51976;47.332;9.404;2022-12-18T10:13:37;93736.06;;;19.66;30.65
65376;BME280;51976;47.332;9.404;2022-12-18T10:16:17;93734.44;;;19.65;30.39
65376;BME280;51976;47.332;9.404;2022-12-18T10:19:12;93730.09;;;19.64;30.57
65376;BME280;51976;47.332;9.404;2022-12-18T10:21:56;93734.13;;;19.67;30.62
65376;BME280;51976;47.332;9.404;2022-12-18T10:24:37;93728.66;;;19.67;30.56
65376;BME280;51976;47.332;9.404;2022-12-18T10:27:16;93729.97;;;19.69;30.51
65376;BME280;51976;47.332;9.404;2022-12-18T10:29:44;93734.28;;;19.70;30.46
65376;BME280;51976;47.332;9.404;2022-12-18T10:32:15;93732.69;;;19.69;30.63
65376;BME280;51976;47.332;9.404;2022-12-18T10:34:45;93728.81;;;19.70;30.59
65376;BME280;51976;47.332;9.404;2022-12-18T10:37:19;93737.81;;;19.71;30.53
65376;BME280;51976;47.332;9.404;2022-12-18T10:39:46;93735.44;;;19.69;30.68
65376;BME280;51976;47.332;9.404;2022-12-18T10:42:19;93738.63;;;19.71;30.54
65376;BME280;51976;47.332;9.404;2022-12-18T10:44:45;93736.53;;;19.68;30.70
65376;BME280;51976;47.332;9.404;2022-12-18T10:47:14;93733.66;;;19.73;30.53
65376;BME280;51976;47.332;9.404;2022-12-18T10:49:49;93743.94;;;19.76;30.38
65376;BME280;51976;47.332;9.404;2022-12-18T10:52:21;93743.47;;;19.74;30.32
65376;BME280;51976;47.332;9.404;2022-12-18T10:54:55;93747.19;;;19.78;30.41
65376;BME280;51976;47.332;9.404;2022-12-18T10:57:35;93748.00;;;19.79;30.61
65376;BME280;51976;47.332;9.404;2022-12-18T11:00:26;93758.31;;;19.82;30.41
65376;BME280;51976;47.332;9.404;2022-12-18T11:02:53;93748.78;;;19.79;30.35
65376;BME280;51976;47.332;9.404;2022-12-18T11:05:30;93744.13;;;19.80;30.26
65376;BME280;51976;47.332;9.404;2022-12-18T11:07:57;93745.44;;;19.82;30.36
65376;BME280;51976;47.332;9.404;2022-12-18T11:10:28;93744.94;;;19.80;30.29
65376;BME280;51976;47.332;9.404;2022-12-18T11:12:56;93744.31;;;19.83;30.56
65376;BME280;51976;47.332;9.404;2022-12-18T11:15:33;93748.03;;;19.87;30.45
65376;BME280;51976;47.332;9.404;2022-12-18T11:17:59;93738.56;;;19.93;30.12
65376;BME280;51976;47.332;9.404;2022-12-18T11:20:32;93731.44;;;19.84;30.51
65376;BME280;51976;47.332;9.404;2022-12-18T11:23:10;93747.41;;;19.90;30.38
65376;BME280;51976;47.332;9.404;2022-12-18T11:25:37;93740.00;;;19.91;30.51
65376;BME280;51976;47.332;9.404;2022-12-18T11:28:38;93736.31;;;19.96;30.43
65376;BME280;51976;47.332;9.404;2022-12-18T11:31:26;93747.56;;;19.94;30.56
65376;BME280;51976;47.332;9.404;2022-12-18T11:34:25;93746.59;;;19.99;30.29
65376;BME280;51976;47.332;9.404;2022-12-18T11:36:53;93742.91;;;20.03;30.27
65376;BME280;51976;47.332;9.404;2022-12-18T11:39:28;93741.91;;;19.99;30.32
65376;BME280;51976;47.332;9.404;2022-12-18T11:42:05;93727.28;;;20.04;30.29
65376;BME280;51976;47.332;9.404;2022-12-18T11:44:54;93731.47;;;20.01;30.35
65376;BME280;51976;47.332;9.404;2022-12-18T11:47:43;93727.94;;;20.09;30.44
65376;BME280;51976;47.332;9.404;2022-12-18T11:50:16;93732.59;;;20.09;30.31
65376;BME280;51976;47.332;9.404;2022-12-18T11:52:43;93722.28;;;20.06;30.56
65376;BME280;51976;47.332;9.404;2022-12-18T11:55:21;93720.53;;;20.10;30.37
65376;BME280;51976;47.332;9.404;2022-12-18T11:58:15;93713.47;;;20.17;30.29
65376;BME280;51976;47.332;9.404;2022-12-18T12:01:05;93706.53;;;20.11;30.25
65376;BME280;51976;47.332;9.404;2022-12-18T12:03:57;93707.03;;;20.13;30.32
65376;BME280;51976;47.332;9.404;2022-12-18T12:06:41;93705.09;;;20.14;30.52
65376;BME280;51976;47.332;9.404;2022-12-18T12:09:22;93701.22;;;20.15;30.36
65376;BME280;51976;47.332;9.404;2022-12-18T12:15:03;93681.91;;;20.20;30.47
65376;BME280;51976;47.332;9.404;2022-12-18T12:17:52;93679.66;;;20.22;30.35
65376;BME280;51976;47.332;9.404;2022-12-18T12:20:39;93683.34;;;20.26;30.17
65376;BME280;51976;47.332;9.404;2022-12-18T12:23:28;93682.06;;;20.32;30.32
65376;BME280;51976;47.332;9.404;2022-12-18T12:26:08;93682.88;;;20.24;30.31
65376;BME280;51976;47.332;9.404;2022-12-18T12:35:06;93682.06;;;20.32;30.26
65376;BME280;51976;47.332;9.404;2022-12-18T12:38:14;93684.16;;;20.35;30.47
65376;BME280;51976;47.332;9.404;2022-12-18T12:40:37;93670.66;;;20.39;30.50
65376;BME280;51976;47.332;9.404;2022-12-18T12:43:23;93659.69;;;20.39;30.19
65376;BME280;51976;47.332;9.404;2022-12-18T12:46:00;93670.97;;;20.37;30.44
65376;BME280;51976;47.332;9.404;2022-12-18T12:48:48;93665.66;;;20.41;30.43
65376;BME280;51976;47.332;9.404;2022-12-18T12:51:28;93657.56;;;20.36;30.47
65376;BME280;51976;47.332;9.404;2022-12-18T12:53:55;93652.28;;;20.39;30.55
65376;BME280;51976;47.332;9.404;2022-12-18T12:56:22;93648.91;;;20.42;30.30
65376;BME280;51976;47.332;9.404;2022-12-18T12:59:44;93650.53;;;20.43;30.29
65376;BME280;51976;47.332;9.404;2022-12-18T13:02:03;93640.53;;;20.39;30.41
65376;BME280;51976;47.332;9.404;2022-12-18T13:04:41;93639.25;;;20.45;30.27
65376;BME280;51976;47.332;9.404;2022-12-18T13:07:22;93639.88;;;20.42;30.33
65376;BME280;51976;47.332;9.404;2022-12-18T13:10:39;93629.91;;;20.46;30.48
65376;BME280;51976;47.332;9.404;2022-12-18T13:12:59;93629.75;;;20.51;30.27
65376;BME280;51976;47.332;9.404;2022-12-18T13:15:46;93631.69;;;20.50;30.49
65376;BME280;51976;47.332;9.404;2022-12-18T13:18:20;93634.56;;;20.45;30.37
65376;BME280;51976;47.332;9.404;2022-12-18T13:21:01;93638.28;;;20.49;30.36
65376;BME280;51976;47.332;9.404;2022-12-18T13:23:31;93637.78;;;20.47;30.37
65376;BME280;51976;47.332;9.404;2022-12-18T13:28:59;93652.78;;;20.50;30.42
65376;BME280;51976;47.332;9.404;2022-12-18T13:31:57;93664.88;;;20.49;30.41
65376;BME280;51976;47.332;9.404;2022-12-18T13:34:25;93666.78;;;20.48;30.46